KSLK/SLK METAR and TAF weather

Enter ICAO airport designator
Station Type Date Time Source
KSLK METAR 2020/11/28 18:51 UTC NOAA

KSLK 281851Z AUTO 24008KT 10SM BKN012 OVC018 02/01 A2987 RMK AO2 UPB05E08RAB08E09B16E17SNB09E19 SLP127 P0001 T00220011


Station Type Date Time Source
KSLK Decoded METAR 2020/11/28 18:51 UTC NOAA

ADIRONDACK REGIONAL AIRPORT, NY, United States (KSLK) 44-24N 074-12W 498M
Nov 28, 2020 - 01:51 PM EST / 2020.11.28 1851 UTC
Wind: from the WSW (240 degrees) at 9 MPH (8 KT):0
Visibility: 10 mile(s):0
Sky conditions: overcast
Precipitation last hour: 0.01 inches
Temperature: 36.0 F (2.2 C)
Dew Point: 34.0 F (1.1 C)
Relative Humidity: 92%
Pressure (altimeter): 29.87 in. Hg (1011 hPa)
ob: KSLK 281851Z AUTO 24008KT 10SM BKN012 OVC018 02/01 A2987 RMK AO2 UPB05E08RAB08E09B16E17SNB09E19 SLP127 P0001 T00220011
cycle: 19

Station Type Date Time Source
KSLK TAF 2020/11/28 18:42 UTC NOAA

TAF KSLK 281740Z 2818/2918 24005KT P6SM VCSH SCT010 OVC020
TEMPO 2818/2822 5SM -RASN BR OVC010
FM290000 27006KT P6SM OVC015
FM291600 22009KT P6SM BKN030

Example: see airport list